sensor_id;sensor_type;location;lat;lon;timestamp;P1;durP1;ratioP1;P2;durP2;ratioP2
10045;SDS011;5063;50.878;4.742;2024-01-16T00:01:07;6.73;;;3.87;;
10045;SDS011;5063;50.878;4.742;2024-01-16T00:03:33;11.83;;;4.47;;
10045;SDS011;5063;50.878;4.742;2024-01-16T00:06:00;8.03;;;4.33;;
10045;SDS011;5063;50.878;4.742;2024-01-16T00:08:26;11.17;;;3.93;;
10045;SDS011;5063;50.878;4.742;2024-01-16T00:10:52;7.83;;;3.60;;
10045;SDS011;5063;50.878;4.742;2024-01-16T00:13:18;11.77;;;4.03;;
10045;SDS011;5063;50.878;4.742;2024-01-16T00:15:43;9.20;;;3.73;;
10045;SDS011;5063;50.878;4.742;2024-01-16T00:18:09;6.93;;;3.47;;
10045;SDS011;5063;50.878;4.742;2024-01-16T00:20:35;9.03;;;3.57;;
10045;SDS011;5063;50.878;4.742;2024-01-16T00:23:01;8.17;;;3.43;;
10045;SDS011;5063;50.878;4.742;2024-01-16T00:25:27;9.13;;;3.60;;
10045;SDS011;5063;50.878;4.742;2024-01-16T00:27:52;8.73;;;3.47;;
10045;SDS011;5063;50.878;4.742;2024-01-16T00:30:19;8.47;;;3.70;;
10045;SDS011;5063;50.878;4.742;2024-01-16T00:32:45;9.43;;;3.13;;
10045;SDS011;5063;50.878;4.742;2024-01-16T00:35:10;7.60;;;3.70;;
10045;SDS011;5063;50.878;4.742;2024-01-16T00:37:36;8.80;;;3.40;;
10045;SDS011;5063;50.878;4.742;2024-01-16T00:40:03;7.90;;;2.90;;
10045;SDS011;5063;50.878;4.742;2024-01-16T00:42:30;7.23;;;3.47;;
10045;SDS011;5063;50.878;4.742;2024-01-16T00:44:56;8.47;;;3.13;;
10045;SDS011;5063;50.878;4.742;2024-01-16T00:47:23;10.33;;;4.13;;
10045;SDS011;5063;50.878;4.742;2024-01-16T00:49:49;4.90;;;3.67;;
10045;SDS011;5063;50.878;4.742;2024-01-16T00:52:15;5.93;;;3.23;;
10045;SDS011;5063;50.878;4.742;2024-01-16T00:54:41;11.03;;;3.47;;
10045;SDS011;5063;50.878;4.742;2024-01-16T00:57:08;11.23;;;3.70;;
10045;SDS011;5063;50.878;4.742;2024-01-16T00:59:33;11.03;;;4.10;;
10045;SDS011;5063;50.878;4.742;2024-01-16T01:01:59;7.43;;;3.33;;
10045;SDS011;5063;50.878;4.742;2024-01-16T01:04:25;8.47;;;3.80;;
10045;SDS011;5063;50.878;4.742;2024-01-16T01:06:51;7.30;;;4.17;;
10045;SDS011;5063;50.878;4.742;2024-01-16T01:09:17;7.30;;;3.57;;
10045;SDS011;5063;50.878;4.742;2024-01-16T01:11:42;9.13;;;3.27;;
10045;SDS011;5063;50.878;4.742;2024-01-16T01:14:08;7.43;;;3.60;;
10045;SDS011;5063;50.878;4.742;2024-01-16T01:16:34;9.80;;;4.20;;
10045;SDS011;5063;50.878;4.742;2024-01-16T01:19:00;8.10;;;3.87;;
10045;SDS011;5063;50.878;4.742;2024-01-16T01:21:25;10.90;;;4.13;;
10045;SDS011;5063;50.878;4.742;2024-01-16T01:23:52;6.47;;;2.87;;
10045;SDS011;5063;50.878;4.742;2024-01-16T01:26:17;7.30;;;3.67;;
10045;SDS011;5063;50.878;4.742;2024-01-16T01:28:44;13.93;;;3.60;;
10045;SDS011;5063;50.878;4.742;2024-01-16T01:31:10;4.20;;;2.93;;
10045;SDS011;5063;50.878;4.742;2024-01-16T01:33:37;9.73;;;3.13;;
10045;SDS011;5063;50.878;4.742;2024-01-16T01:36:02;7.30;;;3.53;;
10045;SDS011;5063;50.878;4.742;2024-01-16T01:38:28;4.90;;;3.17;;
10045;SDS011;5063;50.878;4.742;2024-01-16T01:40:54;12.47;;;3.77;;
10045;SDS011;5063;50.878;4.742;2024-01-16T01:43:23;10.70;;;3.53;;
10045;SDS011;5063;50.878;4.742;2024-01-16T01:46:35;9.80;;;3.50;;
10045;SDS011;5063;50.878;4.742;2024-01-16T01:48:40;7.63;;;3.40;;
10045;SDS011;5063;50.878;4.742;2024-01-16T01:51:06;8.73;;;3.10;;
10045;SDS011;5063;50.878;4.742;2024-01-16T01:53:38;7.07;;;3.60;;
10045;SDS011;5063;50.878;4.742;2024-01-16T01:56:04;8.70;;;3.10;;
10045;SDS011;5063;50.878;4.742;2024-01-16T01:58:35;8.20;;;4.03;;
10045;SDS011;5063;50.878;4.742;2024-01-16T02:01:03;9.87;;;3.17;;
10045;SDS011;5063;50.878;4.742;2024-01-16T02:03:32;9.10;;;3.50;;
10045;SDS011;5063;50.878;4.742;2024-01-16T02:06:03;8.20;;;3.57;;
10045;SDS011;5063;50.878;4.742;2024-01-16T02:08:29;7.80;;;3.50;;
10045;SDS011;5063;50.878;4.742;2024-01-16T02:10:55;9.97;;;3.30;;
10045;SDS011;5063;50.878;4.742;2024-01-16T02:13:20;8.47;;;3.47;;
10045;SDS011;5063;50.878;4.742;2024-01-16T02:15:48;11.17;;;3.53;;
10045;SDS011;5063;50.878;4.742;2024-01-16T02:18:17;10.10;;;3.13;;
10045;SDS011;5063;50.878;4.742;2024-01-16T02:20:43;9.40;;;3.30;;
10045;SDS011;5063;50.878;4.742;2024-01-16T02:23:11;6.40;;;2.77;;
10045;SDS011;5063;50.878;4.742;2024-01-16T02:25:39;9.20;;;3.63;;
10045;SDS011;5063;50.878;4.742;2024-01-16T02:28:06;8.33;;;3.60;;
10045;SDS011;5063;50.878;4.742;2024-01-16T02:30:32;9.37;;;3.63;;
10045;SDS011;5063;50.878;4.742;2024-01-16T02:32:58;7.07;;;3.23;;
10045;SDS011;5063;50.878;4.742;2024-01-16T02:35:24;8.30;;;3.20;;
10045;SDS011;5063;50.878;4.742;2024-01-16T02:37:50;12.27;;;3.50;;
10045;SDS011;5063;50.878;4.742;2024-01-16T02:40:16;6.70;;;3.00;;
10045;SDS011;5063;50.878;4.742;2024-01-16T02:42:42;6.10;;;3.67;;
10045;SDS011;5063;50.878;4.742;2024-01-16T02:45:08;8.23;;;3.07;;
10045;SDS011;5063;50.878;4.742;2024-01-16T02:47:33;9.13;;;3.27;;
10045;SDS011;5063;50.878;4.742;2024-01-16T02:49:59;4.07;;;3.10;;
10045;SDS011;5063;50.878;4.742;2024-01-16T02:52:25;7.27;;;3.30;;
10045;SDS011;5063;50.878;4.742;2024-01-16T02:54:51;8.30;;;3.40;;
10045;SDS011;5063;50.878;4.742;2024-01-16T02:57:17;13.17;;;3.43;;
10045;SDS011;5063;50.878;4.742;2024-01-16T02:59:43;13.83;;;3.70;;
10045;SDS011;5063;50.878;4.742;2024-01-16T03:02:09;7.30;;;3.37;;
10045;SDS011;5063;50.878;4.742;2024-01-16T03:04:35;8.40;;;3.27;;
10045;SDS011;5063;50.878;4.742;2024-01-16T03:07:01;14.23;;;3.77;;
10045;SDS011;5063;50.878;4.742;2024-01-16T03:09:26;9.83;;;2.90;;
10045;SDS011;5063;50.878;4.742;2024-01-16T03:11:52;5.17;;;2.77;;
10045;SDS011;5063;50.878;4.742;2024-01-16T03:14:18;5.23;;;2.83;;
10045;SDS011;5063;50.878;4.742;2024-01-16T03:16:44;13.10;;;3.70;;
10045;SDS011;5063;50.878;4.742;2024-01-16T03:19:10;4.43;;;3.10;;
10045;SDS011;5063;50.878;4.742;2024-01-16T03:21:37;5.97;;;3.17;;
10045;SDS011;5063;50.878;4.742;2024-01-16T03:24:04;8.07;;;3.37;;
10045;SDS011;5063;50.878;4.742;2024-01-16T03:26:31;8.80;;;3.37;;
10045;SDS011;5063;50.878;4.742;2024-01-16T03:28:57;8.30;;;3.87;;
10045;SDS011;5063;50.878;4.742;2024-01-16T03:31:23;9.50;;;3.83;;
10045;SDS011;5063;50.878;4.742;2024-01-16T03:33:49;7.77;;;3.03;;
10045;SDS011;5063;50.878;4.742;2024-01-16T03:36:15;9.63;;;3.57;;
10045;SDS011;5063;50.878;4.742;2024-01-16T03:38:44;8.70;;;3.33;;
10045;SDS011;5063;50.878;4.742;2024-01-16T03:41:13;8.50;;;3.87;;
10045;SDS011;5063;50.878;4.742;2024-01-16T03:43:39;9.87;;;3.10;;
10045;SDS011;5063;50.878;4.742;2024-01-16T03:46:05;8.50;;;3.53;;
10045;SDS011;5063;50.878;4.742;2024-01-16T03:48:31;9.43;;;3.93;;
10045;SDS011;5063;50.878;4.742;2024-01-16T03:50:57;12.60;;;4.10;;
10045;SDS011;5063;50.878;4.742;2024-01-16T03:53:23;8.83;;;3.70;;
10045;SDS011;5063;50.878;4.742;2024-01-16T03:55:48;5.70;;;3.47;;
10045;SDS011;5063;50.878;4.742;2024-01-16T03:58:15;9.07;;;3.33;;
10045;SDS011;5063;50.878;4.742;2024-01-16T04:00:41;9.30;;;3.50;;
10045;SDS011;5063;50.878;4.742;2024-01-16T04:03:06;7.03;;;3.60;;
10045;SDS011;5063;50.878;4.742;2024-01-16T04:05:35;7.73;;;3.07;;
10045;SDS011;5063;50.878;4.742;2024-01-16T04:08:01;4.67;;;3.30;;
10045;SDS011;5063;50.878;4.742;2024-01-16T04:10:27;7.87;;;3.67;;
10045;SDS011;5063;50.878;4.742;2024-01-16T04:12:53;9.47;;;3.53;;
10045;SDS011;5063;50.878;4.742;2024-01-16T04:15:18;5.50;;;3.70;;
10045;SDS011;5063;50.878;4.742;2024-01-16T04:17:44;6.00;;;3.60;;
10045;SDS011;5063;50.878;4.742;2024-01-16T04:20:10;8.10;;;3.67;;
10045;SDS011;5063;50.878;4.742;2024-01-16T04:22:36;5.57;;;3.43;;
10045;SDS011;5063;50.878;4.742;2024-01-16T04:25:02;5.13;;;3.53;;
10045;SDS011;5063;50.878;4.742;2024-01-16T04:27:30;8.97;;;3.60;;
10045;SDS011;5063;50.878;4.742;2024-01-16T04:29:58;7.13;;;3.33;;
10045;SDS011;5063;50.878;4.742;2024-01-16T04:32:24;6.47;;;3.10;;
10045;SDS011;5063;50.878;4.742;2024-01-16T04:34:50;5.03;;;2.83;;
10045;SDS011;5063;50.878;4.742;2024-01-16T04:37:16;10.80;;;4.33;;
10045;SDS011;5063;50.878;4.742;2024-01-16T04:39:41;8.90;;;3.57;;
10045;SDS011;5063;50.878;4.742;2024-01-16T04:42:07;11.00;;;4.00;;
10045;SDS011;5063;50.878;4.742;2024-01-16T04:44:33;12.17;;;3.70;;
10045;SDS011;5063;50.878;4.742;2024-01-16T04:46:58;9.93;;;3.80;;
10045;SDS011;5063;50.878;4.742;2024-01-16T04:49:24;11.70;;;3.83;;
10045;SDS011;5063;50.878;4.742;2024-01-16T04:51:50;9.17;;;3.50;;
10045;SDS011;5063;50.878;4.742;2024-01-16T04:54:15;8.73;;;4.17;;
10045;SDS011;5063;50.878;4.742;2024-01-16T04:56:41;11.13;;;4.20;;
10045;SDS011;5063;50.878;4.742;2024-01-16T04:59:07;11.40;;;4.63;;
10045;SDS011;5063;50.878;4.742;2024-01-16T05:01:32;12.50;;;4.67;;
10045;SDS011;5063;50.878;4.742;2024-01-16T05:03:58;8.03;;;3.57;;
10045;SDS011;5063;50.878;4.742;2024-01-16T05:06:24;9.30;;;4.13;;
10045;SDS011;5063;50.878;4.742;2024-01-16T05:08:49;6.80;;;4.30;;
10045;SDS011;5063;50.878;4.742;2024-01-16T05:11:15;11.47;;;4.20;;
10045;SDS011;5063;50.878;4.742;2024-01-16T05:13:41;9.73;;;3.83;;
10045;SDS011;5063;50.878;4.742;2024-01-16T05:16:06;10.20;;;4.20;;
10045;SDS011;5063;50.878;4.742;2024-01-16T05:18:33;7.83;;;3.87;;
10045;SDS011;5063;50.878;4.742;2024-01-16T05:20:58;11.87;;;4.23;;
10045;SDS011;5063;50.878;4.742;2024-01-16T05:23:24;10.90;;;4.43;;
10045;SDS011;5063;50.878;4.742;2024-01-16T05:25:50;11.80;;;4.43;;
10045;SDS011;5063;50.878;4.742;2024-01-16T05:28:16;8.53;;;3.70;;
10045;SDS011;5063;50.878;4.742;2024-01-16T05:30:42;9.27;;;4.63;;
10045;SDS011;5063;50.878;4.742;2024-01-16T05:33:08;11.60;;;4.30;;
10045;SDS011;5063;50.878;4.742;2024-01-16T05:35:33;6.43;;;3.53;;
10045;SDS011;5063;50.878;4.742;2024-01-16T05:37:59;8.30;;;4.33;;
10045;SDS011;5063;50.878;4.742;2024-01-16T05:40:25;10.23;;;4.40;;
10045;SDS011;5063;50.878;4.742;2024-01-16T05:42:51;14.27;;;5.07;;
10045;SDS011;5063;50.878;4.742;2024-01-16T05:45:17;5.63;;;4.23;;
10045;SDS011;5063;50.878;4.742;2024-01-16T05:47:43;10.67;;;4.33;;
10045;SDS011;5063;50.878;4.742;2024-01-16T05:50:09;11.90;;;4.97;;
10045;SDS011;5063;50.878;4.742;2024-01-16T05:52:35;15.77;;;5.13;;
10045;SDS011;5063;50.878;4.742;2024-01-16T05:55:01;9.67;;;4.60;;
10045;SDS011;5063;50.878;4.742;2024-01-16T05:57:28;8.57;;;4.83;;
10045;SDS011;5063;50.878;4.742;2024-01-16T05:59:58;8.23;;;4.63;;
10045;SDS011;5063;50.878;4.742;2024-01-16T06:02:24;10.40;;;4.53;;
10045;SDS011;5063;50.878;4.742;2024-01-16T06:04:50;8.63;;;4.57;;
10045;SDS011;5063;50.878;4.742;2024-01-16T06:07:16;8.47;;;4.20;;
10045;SDS011;5063;50.878;4.742;2024-01-16T06:09:42;8.87;;;3.77;;
10045;SDS011;5063;50.878;4.742;2024-01-16T06:12:08;8.10;;;4.23;;
10045;SDS011;5063;50.878;4.742;2024-01-16T06:14:34;6.90;;;3.93;;
10045;SDS011;5063;50.878;4.742;2024-01-16T06:17:00;8.80;;;4.40;;
10045;SDS011;5063;50.878;4.742;2024-01-16T06:19:25;9.80;;;5.47;;
10045;SDS011;5063;50.878;4.742;2024-01-16T06:21:51;12.97;;;4.53;;
10045;SDS011;5063;50.878;4.742;2024-01-16T06:24:17;8.37;;;4.93;;
10045;SDS011;5063;50.878;4.742;2024-01-16T06:26:43;8.43;;;4.30;;
10045;SDS011;5063;50.878;4.742;2024-01-16T06:29:08;10.93;;;4.97;;
10045;SDS011;5063;50.878;4.742;2024-01-16T06:31:34;13.67;;;4.70;;
10045;SDS011;5063;50.878;4.742;2024-01-16T06:34:00;9.00;;;5.00;;
10045;SDS011;5063;50.878;4.742;2024-01-16T06:36:26;17.23;;;6.80;;
10045;SDS011;5063;50.878;4.742;2024-01-16T06:38:52;9.10;;;5.27;;
10045;SDS011;5063;50.878;4.742;2024-01-16T06:41:17;9.37;;;5.00;;
10045;SDS011;5063;50.878;4.742;2024-01-16T06:43:43;15.17;;;5.07;;
10045;SDS011;5063;50.878;4.742;2024-01-16T06:46:09;16.97;;;5.40;;
10045;SDS011;5063;50.878;4.742;2024-01-16T06:48:35;10.67;;;4.73;;
10045;SDS011;5063;50.878;4.742;2024-01-16T06:51:02;9.23;;;4.90;;
10045;SDS011;5063;50.878;4.742;2024-01-16T06:53:28;7.00;;;4.87;;
10045;SDS011;5063;50.878;4.742;2024-01-16T06:55:53;11.87;;;5.10;;
10045;SDS011;5063;50.878;4.742;2024-01-16T06:58:19;17.33;;;5.63;;
10045;SDS011;5063;50.878;4.742;2024-01-16T07:00:46;9.90;;;4.80;;
10045;SDS011;5063;50.878;4.742;2024-01-16T07:03:12;12.27;;;4.63;;
10045;SDS011;5063;50.878;4.742;2024-01-16T07:05:38;10.87;;;4.87;;
10045;SDS011;5063;50.878;4.742;2024-01-16T07:08:06;10.73;;;5.87;;
10045;SDS011;5063;50.878;4.742;2024-01-16T07:10:33;11.07;;;4.50;;
10045;SDS011;5063;50.878;4.742;2024-01-16T07:12:59;11.70;;;4.70;;
10045;SDS011;5063;50.878;4.742;2024-01-16T07:15:25;7.03;;;4.83;;
10045;SDS011;5063;50.878;4.742;2024-01-16T07:17:51;10.30;;;4.70;;
10045;SDS011;5063;50.878;4.742;2024-01-16T07:20:16;9.33;;;5.17;;
10045;SDS011;5063;50.878;4.742;2024-01-16T07:22:42;15.27;;;4.73;;
10045;SDS011;5063;50.878;4.742;2024-01-16T07:25:08;8.57;;;5.50;;
10045;SDS011;5063;50.878;4.742;2024-01-16T07:27:34;13.17;;;5.17;;
10045;SDS011;5063;50.878;4.742;2024-01-16T07:30:00;11.97;;;4.57;;
10045;SDS011;5063;50.878;4.742;2024-01-16T07:32:26;15.07;;;5.30;;
10045;SDS011;5063;50.878;4.742;2024-01-16T07:34:52;15.37;;;5.73;;
10045;SDS011;5063;50.878;4.742;2024-01-16T07:37:18;12.10;;;5.33;;
10045;SDS011;5063;50.878;4.742;2024-01-16T07:39:44;15.13;;;5.30;;
10045;SDS011;5063;50.878;4.742;2024-01-16T07:42:10;7.00;;;4.20;;
10045;SDS011;5063;50.878;4.742;2024-01-16T07:44:36;9.93;;;4.90;;
10045;SDS011;5063;50.878;4.742;2024-01-16T07:47:02;9.90;;;5.27;;
10045;SDS011;5063;50.878;4.742;2024-01-16T07:49:28;11.47;;;4.83;;
10045;SDS011;5063;50.878;4.742;2024-01-16T07:51:54;9.33;;;4.47;;
10045;SDS011;5063;50.878;4.742;2024-01-16T07:54:20;6.70;;;4.97;;
10045;SDS011;5063;50.878;4.742;2024-01-16T07:56:46;13.13;;;5.43;;
10045;SDS011;5063;50.878;4.742;2024-01-16T07:59:12;18.10;;;5.60;;
10045;SDS011;5063;50.878;4.742;2024-01-16T08:01:37;21.73;;;5.57;;
10045;SDS011;5063;50.878;4.742;2024-01-16T08:04:03;17.03;;;5.40;;
10045;SDS011;5063;50.878;4.742;2024-01-16T08:06:29;10.40;;;4.73;;
10045;SDS011;5063;50.878;4.742;2024-01-16T08:08:55;19.73;;;5.63;;
10045;SDS011;5063;50.878;4.742;2024-01-16T08:11:21;18.33;;;6.17;;
10045;SDS011;5063;50.878;4.742;2024-01-16T08:13:47;8.67;;;4.83;;
10045;SDS011;5063;50.878;4.742;2024-01-16T08:16:12;8.10;;;4.50;;
10045;SDS011;5063;50.878;4.742;2024-01-16T08:18:38;13.53;;;4.37;;
10045;SDS011;5063;50.878;4.742;2024-01-16T08:21:04;13.47;;;5.10;;
10045;SDS011;5063;50.878;4.742;2024-01-16T08:23:31;18.47;;;5.80;;
10045;SDS011;5063;50.878;4.742;2024-01-16T08:25:56;15.47;;;6.20;;
10045;SDS011;5063;50.878;4.742;2024-01-16T08:28:22;13.73;;;4.60;;
10045;SDS011;5063;50.878;4.742;2024-01-16T08:30:49;15.83;;;5.63;;
10045;SDS011;5063;50.878;4.742;2024-01-16T08:33:15;13.37;;;5.20;;
10045;SDS011;5063;50.878;4.742;2024-01-16T08:35:41;8.07;;;4.70;;
10045;SDS011;5063;50.878;4.742;2024-01-16T08:38:07;8.93;;;4.23;;
10045;SDS011;5063;50.878;4.742;2024-01-16T08:40:32;8.50;;;4.90;;
10045;SDS011;5063;50.878;4.742;2024-01-16T08:42:58;8.30;;;4.20;;
10045;SDS011;5063;50.878;4.742;2024-01-16T08:45:24;8.33;;;4.80;;
10045;SDS011;5063;50.878;4.742;2024-01-16T08:47:51;7.97;;;5.03;;
10045;SDS011;5063;50.878;4.742;2024-01-16T08:50:17;11.20;;;4.47;;
10045;SDS011;5063;50.878;4.742;2024-01-16T08:52:42;10.77;;;5.30;;
10045;SDS011;5063;50.878;4.742;2024-01-16T08:55:08;10.80;;;5.27;;
10045;SDS011;5063;50.878;4.742;2024-01-16T08:57:35;10.03;;;5.93;;
10045;SDS011;5063;50.878;4.742;2024-01-16T09:00:03;9.80;;;4.63;;
10045;SDS011;5063;50.878;4.742;2024-01-16T09:02:34;12.90;;;5.30;;
10045;SDS011;5063;50.878;4.742;2024-01-16T09:05:00;10.60;;;5.70;;
10045;SDS011;5063;50.878;4.742;2024-01-16T09:07:26;7.97;;;5.03;;
10045;SDS011;5063;50.878;4.742;2024-01-16T09:09:51;6.57;;;4.40;;
10045;SDS011;5063;50.878;4.742;2024-01-16T09:12:17;10.33;;;4.60;;
10045;SDS011;5063;50.878;4.742;2024-01-16T09:14:43;6.93;;;4.20;;
10045;SDS011;5063;50.878;4.742;2024-01-16T09:17:09;10.17;;;4.57;;
10045;SDS011;5063;50.878;4.742;2024-01-16T09:19:34;6.97;;;4.10;;
10045;SDS011;5063;50.878;4.742;2024-01-16T09:22:01;9.00;;;4.40;;
10045;SDS011;5063;50.878;4.742;2024-01-16T09:24:28;8.20;;;4.23;;
10045;SDS011;5063;50.878;4.742;2024-01-16T09:26:54;7.13;;;3.87;;
10045;SDS011;5063;50.878;4.742;2024-01-16T09:29:19;10.33;;;3.93;;
10045;SDS011;5063;50.878;4.742;2024-01-16T09:31:46;8.83;;;3.90;;
10045;SDS011;5063;50.878;4.742;2024-01-16T09:34:12;7.57;;;3.73;;
10045;SDS011;5063;50.878;4.742;2024-01-16T09:36:39;8.43;;;4.50;;
10045;SDS011;5063;50.878;4.742;2024-01-16T09:39:05;9.37;;;4.47;;
10045;SDS011;5063;50.878;4.742;2024-01-16T09:41:36;7.33;;;4.00;;
10045;SDS011;5063;50.878;4.742;2024-01-16T09:44:05;10.27;;;3.90;;
10045;SDS011;5063;50.878;4.742;2024-01-16T09:46:32;18.13;;;5.80;;
10045;SDS011;5063;50.878;4.742;2024-01-16T09:48:59;8.73;;;4.83;;
10045;SDS011;5063;50.878;4.742;2024-01-16T09:51:27;8.00;;;4.20;;
10045;SDS011;5063;50.878;4.742;2024-01-16T09:53:53;5.53;;;4.30;;
10045;SDS011;5063;50.878;4.742;2024-01-16T09:56:21;7.03;;;4.60;;
10045;SDS011;5063;50.878;4.742;2024-01-16T09:58:49;7.30;;;3.80;;
10045;SDS011;5063;50.878;4.742;2024-01-16T10:01:19;9.10;;;3.63;;
10045;SDS011;5063;50.878;4.742;2024-01-16T10:03:46;9.23;;;3.97;;
10045;SDS011;5063;50.878;4.742;2024-01-16T10:06:12;6.83;;;4.37;;
10045;SDS011;5063;50.878;4.742;2024-01-16T10:08:40;10.00;;;4.70;;
10045;SDS011;5063;50.878;4.742;2024-01-16T10:11:06;11.53;;;4.57;;
10045;SDS011;5063;50.878;4.742;2024-01-16T10:13:33;5.33;;;3.77;;
10045;SDS011;5063;50.878;4.742;2024-01-16T10:16:00;6.33;;;3.77;;
10045;SDS011;5063;50.878;4.742;2024-01-16T10:18:27;10.37;;;4.33;;
10045;SDS011;5063;50.878;4.742;2024-01-16T10:20:57;9.63;;;4.17;;
10045;SDS011;5063;50.878;4.742;2024-01-16T10:23:26;4.93;;;3.50;;
10045;SDS011;5063;50.878;4.742;2024-01-16T10:26:27;8.53;;;4.20;;
10045;SDS011;5063;50.878;4.742;2024-01-16T10:28:46;6.43;;;3.57;;
10045;SDS011;5063;50.878;4.742;2024-01-16T10:31:12;7.90;;;3.33;;
10045;SDS011;5063;50.878;4.742;2024-01-16T10:33:41;7.43;;;3.80;;
10045;SDS011;5063;50.878;4.742;2024-01-16T10:36:14;12.63;;;4.10;;
10045;SDS011;5063;50.878;4.742;2024-01-16T10:38:42;9.13;;;4.17;;
10045;SDS011;5063;50.878;4.742;2024-01-16T10:41:09;7.50;;;3.80;;
10045;SDS011;5063;50.878;4.742;2024-01-16T10:43:42;7.83;;;4.03;;
10045;SDS011;5063;50.878;4.742;2024-01-16T10:46:13;6.80;;;3.77;;
10045;SDS011;5063;50.878;4.742;2024-01-16T10:48:58;9.03;;;4.17;;
10045;SDS011;5063;50.878;4.742;2024-01-16T10:51:28;7.27;;;3.93;;
10045;SDS011;5063;50.878;4.742;2024-01-16T10:54:04;9.50;;;4.10;;
10045;SDS011;5063;50.878;4.742;2024-01-16T10:56:31;6.50;;;3.97;;
10045;SDS011;5063;50.878;4.742;2024-01-16T11:01:58;6.60;;;3.33;;
10045;SDS011;5063;50.878;4.742;2024-01-16T11:04:27;9.40;;;4.20;;
10045;SDS011;5063;50.878;4.742;2024-01-16T11:06:53;7.10;;;4.00;;
10045;SDS011;5063;50.878;4.742;2024-01-16T11:09:20;11.40;;;4.10;;
10045;SDS011;5063;50.878;4.742;2024-01-16T11:11:46;10.30;;;4.10;;
10045;SDS011;5063;50.878;4.742;2024-01-16T11:14:15;9.23;;;3.90;;
10045;SDS011;5063;50.878;4.742;2024-01-16T11:16:41;9.63;;;3.43;;
10045;SDS011;5063;50.878;4.742;2024-01-16T11:19:08;9.43;;;4.33;;
10045;SDS011;5063;50.878;4.742;2024-01-16T11:21:35;6.67;;;3.10;;
10045;SDS011;5063;50.878;4.742;2024-01-16T11:24:03;5.77;;;3.50;;
10045;SDS011;5063;50.878;4.742;2024-01-16T11:28:59;8.50;;;2.87;;
10045;SDS011;5063;50.878;4.742;2024-01-16T11:31:33;6.40;;;2.63;;
10045;SDS011;5063;50.878;4.742;2024-01-16T11:34:00;5.73;;;3.07;;
10045;SDS011;5063;50.878;4.742;2024-01-16T11:39:24;6.17;;;3.00;;
10045;SDS011;5063;50.878;4.742;2024-01-16T11:41:57;4.10;;;2.50;;
10045;SDS011;5063;50.878;4.742;2024-01-16T11:49:43;5.37;;;3.17;;
10045;SDS011;5063;50.878;4.742;2024-01-16T11:52:09;5.60;;;2.63;;
10045;SDS011;5063;50.878;4.742;2024-01-16T11:54:37;5.93;;;3.00;;
10045;SDS011;5063;50.878;4.742;2024-01-16T11:59:59;5.37;;;2.50;;
10045;SDS011;5063;50.878;4.742;2024-01-16T12:02:36;7.47;;;2.63;;
10045;SDS011;5063;50.878;4.742;2024-01-16T12:05:11;8.43;;;3.07;;
10045;SDS011;5063;50.878;4.742;2024-01-16T12:07:45;4.60;;;2.90;;
10045;SDS011;5063;50.878;4.742;2024-01-16T12:10:14;9.80;;;2.40;;
10045;SDS011;5063;50.878;4.742;2024-01-16T12:12:47;4.73;;;2.20;;
10045;SDS011;5063;50.878;4.742;2024-01-16T12:15:17;6.20;;;2.70;;
10045;SDS011;5063;50.878;4.742;2024-01-16T12:20:23;2.93;;;2.33;;
10045;SDS011;5063;50.878;4.742;2024-01-16T12:23:03;7.60;;;3.47;;
10045;SDS011;5063;50.878;4.742;2024-01-16T12:25:31;6.27;;;2.20;;
10045;SDS011;5063;50.878;4.742;2024-01-16T12:27:58;8.27;;;3.03;;
10045;SDS011;5063;50.878;4.742;2024-01-16T12:30:26;7.80;;;2.47;;
10045;SDS011;5063;50.878;4.742;2024-01-16T12:33:28;10.57;;;2.70;;
10045;SDS011;5063;50.878;4.742;2024-01-16T12:35:47;5.37;;;3.80;;
10045;SDS011;5063;50.878;4.742;2024-01-16T12:38:14;7.10;;;2.70;;
10045;SDS011;5063;50.878;4.742;2024-01-16T12:40:42;5.37;;;2.50;;
10045;SDS011;5063;50.878;4.742;2024-01-16T12:43:14;4.50;;;2.37;;
10045;SDS011;5063;50.878;4.742;2024-01-16T12:45:42;9.70;;;3.00;;
10045;SDS011;5063;50.878;4.742;2024-01-16T12:48:09;5.63;;;2.50;;
10045;SDS011;5063;50.878;4.742;2024-01-16T12:50:35;5.37;;;3.30;;
10045;SDS011;5063;50.878;4.742;2024-01-16T12:55:35;6.50;;;3.13;;
10045;SDS011;5063;50.878;4.742;2024-01-16T13:00:42;3.50;;;2.50;;
10045;SDS011;5063;50.878;4.742;2024-01-16T13:03:35;5.23;;;2.80;;
10045;SDS011;5063;50.878;4.742;2024-01-16T13:06:01;3.20;;;2.70;;
10045;SDS011;5063;50.878;4.742;2024-01-16T13:08:26;4.50;;;2.23;;
10045;SDS011;5063;50.878;4.742;2024-01-16T13:11:02;2.47;;;2.20;;
10045;SDS011;5063;50.878;4.742;2024-01-16T13:13:33;5.33;;;2.77;;
10045;SDS011;5063;50.878;4.742;2024-01-16T13:15:59;4.13;;;2.57;;
10045;SDS011;5063;50.878;4.742;2024-01-16T13:18:27;6.33;;;2.97;;
10045;SDS011;5063;50.878;4.742;2024-01-16T13:20:54;4.07;;;2.57;;
10045;SDS011;5063;50.878;4.742;2024-01-16T13:23:22;4.23;;;3.00;;
10045;SDS011;5063;50.878;4.742;2024-01-16T13:25:50;7.33;;;2.80;;
10045;SDS011;5063;50.878;4.742;2024-01-16T13:28:16;6.33;;;2.30;;
10045;SDS011;5063;50.878;4.742;2024-01-16T13:30:43;5.67;;;2.37;;
10045;SDS011;5063;50.878;4.742;2024-01-16T13:33:10;5.20;;;2.43;;
10045;SDS011;5063;50.878;4.742;2024-01-16T13:35:38;6.30;;;2.43;;
10045;SDS011;5063;50.878;4.742;2024-01-16T13:38:06;8.00;;;2.70;;
10045;SDS011;5063;50.878;4.742;2024-01-16T13:40:33;5.93;;;2.63;;
10045;SDS011;5063;50.878;4.742;2024-01-16T13:43:00;4.00;;;2.70;;
10045;SDS011;5063;50.878;4.742;2024-01-16T13:45:26;8.63;;;2.73;;
10045;SDS011;5063;50.878;4.742;2024-01-16T13:47:53;4.00;;;2.80;;
10045;SDS011;5063;50.878;4.742;2024-01-16T13:50:20;5.27;;;2.73;;
10045;SDS011;5063;50.878;4.742;2024-01-16T13:52:46;7.13;;;2.90;;
10045;SDS011;5063;50.878;4.742;2024-01-16T13:55:12;4.77;;;3.47;;
10045;SDS011;5063;50.878;4.742;2024-01-16T13:57:37;5.13;;;2.90;;
10045;SDS011;5063;50.878;4.742;2024-01-16T14:00:04;6.73;;;3.43;;
10045;SDS011;5063;50.878;4.742;2024-01-16T14:02:39;7.13;;;2.77;;
10045;SDS011;5063;50.878;4.742;2024-01-16T14:05:11;8.90;;;3.10;;
10045;SDS011;5063;50.878;4.742;2024-01-16T14:07:42;5.80;;;2.70;;
10045;SDS011;5063;50.878;4.742;2024-01-16T14:10:11;5.57;;;2.47;;
10045;SDS011;5063;50.878;4.742;2024-01-16T14:12:38;3.87;;;2.47;;
10045;SDS011;5063;50.878;4.742;2024-01-16T14:15:07;7.00;;;2.73;;
10045;SDS011;5063;50.878;4.742;2024-01-16T14:17:44;6.60;;;3.00;;
10045;SDS011;5063;50.878;4.742;2024-01-16T14:20:11;10.30;;;3.00;;
10045;SDS011;5063;50.878;4.742;2024-01-16T14:22:37;3.37;;;2.60;;
10045;SDS011;5063;50.878;4.742;2024-01-16T14:25:05;4.37;;;2.40;;
10045;SDS011;5063;50.878;4.742;2024-01-16T14:27:38;5.50;;;2.47;;
10045;SDS011;5063;50.878;4.742;2024-01-16T14:30:12;4.30;;;2.70;;
10045;SDS011;5063;50.878;4.742;2024-01-16T14:32:39;8.17;;;2.93;;
10045;SDS011;5063;50.878;4.742;2024-01-16T14:35:07;6.60;;;2.70;;
10045;SDS011;5063;50.878;4.742;2024-01-16T14:37:35;7.80;;;3.00;;
10045;SDS011;5063;50.878;4.742;2024-01-16T14:40:02;5.80;;;2.73;;
10045;SDS011;5063;50.878;4.742;2024-01-16T14:42:33;5.93;;;2.77;;
10045;SDS011;5063;50.878;4.742;2024-01-16T14:44:59;6.27;;;2.63;;
10045;SDS011;5063;50.878;4.742;2024-01-16T14:47:25;4.33;;;3.10;;
10045;SDS011;5063;50.878;4.742;2024-01-16T14:49:51;3.90;;;2.43;;
10045;SDS011;5063;50.878;4.742;2024-01-16T14:52:19;3.80;;;2.53;;
10045;SDS011;5063;50.878;4.742;2024-01-16T14:54:45;8.70;;;2.23;;
10045;SDS011;5063;50.878;4.742;2024-01-16T14:57:11;6.50;;;2.90;;
10045;SDS011;5063;50.878;4.742;2024-01-16T14:59:37;8.90;;;3.10;;
10045;SDS011;5063;50.878;4.742;2024-01-16T15:02:03;4.53;;;2.60;;
10045;SDS011;5063;50.878;4.742;2024-01-16T15:04:37;3.17;;;2.57;;
10045;SDS011;5063;50.878;4.742;2024-01-16T15:07:06;9.80;;;3.67;;
10045;SDS011;5063;50.878;4.742;2024-01-16T15:09:33;5.80;;;2.73;;
10045;SDS011;5063;50.878;4.742;2024-01-16T15:12:11;5.53;;;2.90;;
10045;SDS011;5063;50.878;4.742;2024-01-16T15:14:38;7.57;;;3.07;;
10045;SDS011;5063;50.878;4.742;2024-01-16T15:17:04;4.40;;;2.93;;
10045;SDS011;5063;50.878;4.742;2024-01-16T15:19:32;4.60;;;2.73;;
10045;SDS011;5063;50.878;4.742;2024-01-16T15:21:57;7.00;;;3.60;;